sensor_id;sensor_type;location;lat;lon;timestamp;temperature;humidity
64817;DHT22;53289;45.602;11.904;2022-12-16T00:00:22;6.50;88.20
64817;DHT22;53289;45.602;11.904;2022-12-16T00:02:52;6.50;88.10
64817;DHT22;53289;45.602;11.904;2022-12-16T00:05:18;6.50;88.10
64817;DHT22;53289;45.602;11.904;2022-12-16T00:07:47;6.60;88.10
64817;DHT22;53289;45.602;11.904;2022-12-16T00:10:13;6.60;88.10
64817;DHT22;53289;45.602;11.904;2022-12-16T00:12:39;6.60;88.00
64817;DHT22;53289;45.602;11.904;2022-12-16T00:15:06;6.60;88.00
64817;DHT22;53289;45.602;11.904;2022-12-16T00:17:32;6.60;88.10
64817;DHT22;53289;45.602;11.904;2022-12-16T00:19:58;6.70;88.10
64817;DHT22;53289;45.602;11.904;2022-12-16T00:22:24;6.70;88.00
64817;DHT22;53289;45.602;11.904;2022-12-16T00:24:50;6.70;88.00
64817;DHT22;53289;45.602;11.904;2022-12-16T00:27:16;6.70;88.00
64817;DHT22;53289;45.602;11.904;2022-12-16T00:29:43;6.70;87.90
64817;DHT22;53289;45.602;11.904;2022-12-16T00:32:09;6.70;87.80
64817;DHT22;53289;45.602;11.904;2022-12-16T00:34:34;6.70;87.80
64817;DHT22;53289;45.602;11.904;2022-12-16T00:37:00;6.60;87.80
64817;DHT22;53289;45.602;11.904;2022-12-16T00:39:26;6.60;87.80
64817;DHT22;53289;45.602;11.904;2022-12-16T00:41:52;6.60;87.70
64817;DHT22;53289;45.602;11.904;2022-12-16T00:44:18;6.60;87.70
64817;DHT22;53289;45.602;11.904;2022-12-16T00:46:44;6.60;87.70
64817;DHT22;53289;45.602;11.904;2022-12-16T00:49:10;6.60;87.70
64817;DHT22;53289;45.602;11.904;2022-12-16T00:51:36;6.50;87.60
64817;DHT22;53289;45.602;11.904;2022-12-16T00:54:02;6.50;87.60
64817;DHT22;53289;45.602;11.904;2022-12-16T00:56:28;6.50;87.60
64817;DHT22;53289;45.602;11.904;2022-12-16T00:58:54;6.50;87.50
64817;DHT22;53289;45.602;11.904;2022-12-16T01:01:20;6.40;87.60
64817;DHT22;53289;45.602;11.904;2022-12-16T01:03:46;6.50;87.60
64817;DHT22;53289;45.602;11.904;2022-12-16T01:06:16;6.50;87.60
64817;DHT22;53289;45.602;11.904;2022-12-16T01:08:42;6.40;87.60
64817;DHT22;53289;45.602;11.904;2022-12-16T01:11:16;6.50;87.60
64817;DHT22;53289;45.602;11.904;2022-12-16T01:13:44;6.40;87.60
64817;DHT22;53289;45.602;11.904;2022-12-16T01:16:10;6.50;87.60
64817;DHT22;53289;45.602;11.904;2022-12-16T01:18:36;6.40;87.60
64817;DHT22;53289;45.602;11.904;2022-12-16T01:21:04;6.40;87.60
64817;DHT22;53289;45.602;11.904;2022-12-16T01:23:31;6.40;87.70
64817;DHT22;53289;45.602;11.904;2022-12-16T01:25:59;6.40;87.70
64817;DHT22;53289;45.602;11.904;2022-12-16T01:28:26;6.40;87.70
64817;DHT22;53289;45.602;11.904;2022-12-16T01:30:59;6.40;87.70
64817;DHT22;53289;45.602;11.904;2022-12-16T01:33:32;6.40;87.80
64817;DHT22;53289;45.602;11.904;2022-12-16T01:36:03;6.40;87.70
64817;DHT22;53289;45.602;11.904;2022-12-16T01:38:30;6.40;87.70
64817;DHT22;53289;45.602;11.904;2022-12-16T01:40:57;6.40;87.70
64817;DHT22;53289;45.602;11.904;2022-12-16T01:43:26;6.40;87.70
64817;DHT22;53289;45.602;11.904;2022-12-16T01:46:02;6.40;87.80
64817;DHT22;53289;45.602;11.904;2022-12-16T01:51:13;6.40;87.80
64817;DHT22;53289;45.602;11.904;2022-12-16T01:53:41;6.50;87.80
64817;DHT22;53289;45.602;11.904;2022-12-16T01:56:09;6.40;87.70
64817;DHT22;53289;45.602;11.904;2022-12-16T01:58:39;6.40;87.70
64817;DHT22;53289;45.602;11.904;2022-12-16T02:01:05;6.50;87.70
64817;DHT22;53289;45.602;11.904;2022-12-16T02:03:34;6.50;87.80
64817;DHT22;53289;45.602;11.904;2022-12-16T02:06:03;6.50;87.70
64817;DHT22;53289;45.602;11.904;2022-12-16T02:08:29;6.50;87.70
64817;DHT22;53289;45.602;11.904;2022-12-16T02:11:14;6.60;87.60
64817;DHT22;53289;45.602;11.904;2022-12-16T02:28:02;6.50;87.60
64817;DHT22;53289;45.602;11.904;2022-12-16T02:41:06;6.60;87.70
64817;DHT22;53289;45.602;11.904;2022-12-16T02:44:03;6.70;87.60
64817;DHT22;53289;45.602;11.904;2022-12-16T02:46:31;6.70;87.60
64817;DHT22;53289;45.602;11.904;2022-12-16T02:49:40;6.70;87.60
64817;DHT22;53289;45.602;11.904;2022-12-16T02:51:58;6.80;87.70
64817;DHT22;53289;45.602;11.904;2022-12-16T02:54:26;6.80;87.60
64817;DHT22;53289;45.602;11.904;2022-12-16T03:00:17;6.90;87.50
64817;DHT22;53289;45.602;11.904;2022-12-16T03:03:18;6.90;87.50
64817;DHT22;53289;45.602;11.904;2022-12-16T03:05:47;6.90;87.50
64817;DHT22;53289;45.602;11.904;2022-12-16T03:08:29;7.00;87.40
64817;DHT22;53289;45.602;11.904;2022-12-16T03:11:00;7.00;87.30
64817;DHT22;53289;45.602;11.904;2022-12-16T03:13:29;7.10;87.20
64817;DHT22;53289;45.602;11.904;2022-12-16T03:15:59;7.10;87.20
64817;DHT22;53289;45.602;11.904;2022-12-16T03:18:26;7.00;87.10
64817;DHT22;53289;45.602;11.904;2022-12-16T03:21:02;7.10;87.00
64817;DHT22;53289;45.602;11.904;2022-12-16T03:23:53;7.00;87.00
64817;DHT22;53289;45.602;11.904;2022-12-16T03:26:25;7.00;86.90
64817;DHT22;53289;45.602;11.904;2022-12-16T03:29:01;7.00;87.00
64817;DHT22;53289;45.602;11.904;2022-12-16T03:31:57;7.00;87.00
64817;DHT22;53289;45.602;11.904;2022-12-16T03:37:14;6.90;86.90
64817;DHT22;53289;45.602;11.904;2022-12-16T03:39:43;6.90;86.90
64817;DHT22;53289;45.602;11.904;2022-12-16T03:42:13;6.90;86.90
64817;DHT22;53289;45.602;11.904;2022-12-16T03:44:42;6.90;86.90
64817;DHT22;53289;45.602;11.904;2022-12-16T03:47:08;6.90;86.90
64817;DHT22;53289;45.602;11.904;2022-12-16T03:49:34;6.90;86.90
64817;DHT22;53289;45.602;11.904;2022-12-16T03:52:00;6.90;87.00
64817;DHT22;53289;45.602;11.904;2022-12-16T03:54:32;6.90;87.00
64817;DHT22;53289;45.602;11.904;2022-12-16T03:56:58;6.90;86.90
64817;DHT22;53289;45.602;11.904;2022-12-16T03:59:24;6.90;86.80
64817;DHT22;53289;45.602;11.904;2022-12-16T04:01:50;6.90;86.80
64817;DHT22;53289;45.602;11.904;2022-12-16T04:04:17;6.80;86.80
64817;DHT22;53289;45.602;11.904;2022-12-16T04:06:43;6.80;86.80
64817;DHT22;53289;45.602;11.904;2022-12-16T04:09:09;6.70;86.90
64817;DHT22;53289;45.602;11.904;2022-12-16T04:11:34;6.70;87.00
64817;DHT22;53289;45.602;11.904;2022-12-16T04:14:19;6.60;87.20
64817;DHT22;53289;45.602;11.904;2022-12-16T04:17:04;6.60;87.20
64817;DHT22;53289;45.602;11.904;2022-12-16T04:19:49;6.60;87.20
64817;DHT22;53289;45.602;11.904;2022-12-16T04:22:41;6.60;87.30
64817;DHT22;53289;45.602;11.904;2022-12-16T04:25:34;6.60;87.30
64817;DHT22;53289;45.602;11.904;2022-12-16T04:28:01;6.60;87.20
64817;DHT22;53289;45.602;11.904;2022-12-16T04:30:29;6.60;87.10
64817;DHT22;53289;45.602;11.904;2022-12-16T04:33:03;6.60;87.00
64817;DHT22;53289;45.602;11.904;2022-12-16T04:35:48;6.50;87.00
64817;DHT22;53289;45.602;11.904;2022-12-16T04:38:32;6.40;87.00
64817;DHT22;53289;45.602;11.904;2022-12-16T04:41:36;6.40;87.20
64817;DHT22;53289;45.602;11.904;2022-12-16T04:44:20;6.40;87.30
64817;DHT22;53289;45.602;11.904;2022-12-16T04:47:04;6.50;87.30
64817;DHT22;53289;45.602;11.904;2022-12-16T04:49:48;6.50;87.20
64817;DHT22;53289;45.602;11.904;2022-12-16T04:52:32;6.50;87.10
64817;DHT22;53289;45.602;11.904;2022-12-16T04:55:17;6.50;87.10
64817;DHT22;53289;45.602;11.904;2022-12-16T04:58:02;6.60;87.00
64817;DHT22;53289;45.602;11.904;2022-12-16T05:01:03;6.60;87.00
64817;DHT22;53289;45.602;11.904;2022-12-16T05:03:48;6.60;87.00
64817;DHT22;53289;45.602;11.904;2022-12-16T05:06:32;6.60;87.00
64817;DHT22;53289;45.602;11.904;2022-12-16T05:09:17;6.60;86.90
64817;DHT22;53289;45.602;11.904;2022-12-16T05:12:21;6.60;86.80
64817;DHT22;53289;45.602;11.904;2022-12-16T05:15:05;6.60;86.80
64817;DHT22;53289;45.602;11.904;2022-12-16T05:17:49;6.60;86.70
64817;DHT22;53289;45.602;11.904;2022-12-16T05:20:34;6.50;86.60
64817;DHT22;53289;45.602;11.904;2022-12-16T05:23:18;6.50;86.70
64817;DHT22;53289;45.602;11.904;2022-12-16T05:26:02;6.40;86.70
64817;DHT22;53289;45.602;11.904;2022-12-16T05:28:46;6.40;86.70
64817;DHT22;53289;45.602;11.904;2022-12-16T05:31:30;6.30;86.80
64817;DHT22;53289;45.602;11.904;2022-12-16T05:34:15;6.30;86.80
64817;DHT22;53289;45.602;11.904;2022-12-16T05:36:59;6.20;86.90
64817;DHT22;53289;45.602;11.904;2022-12-16T05:39:43;6.20;86.90
64817;DHT22;53289;45.602;11.904;2022-12-16T05:42:27;6.10;87.00
64817;DHT22;53289;45.602;11.904;2022-12-16T05:45:11;6.10;87.10
64817;DHT22;53289;45.602;11.904;2022-12-16T05:47:55;6.10;87.10
64817;DHT22;53289;45.602;11.904;2022-12-16T05:50:39;6.00;87.20
64817;DHT22;53289;45.602;11.904;2022-12-16T05:53:23;6.00;87.30
64817;DHT22;53289;45.602;11.904;2022-12-16T05:56:08;6.00;87.30
64817;DHT22;53289;45.602;11.904;2022-12-16T05:58:52;6.00;87.40
64817;DHT22;53289;45.602;11.904;2022-12-16T06:01:36;6.00;87.50
64817;DHT22;53289;45.602;11.904;2022-12-16T06:04:20;6.10;87.50
64817;DHT22;53289;45.602;11.904;2022-12-16T06:07:04;6.10;87.50
64817;DHT22;53289;45.602;11.904;2022-12-16T06:09:48;6.00;87.50
64817;DHT22;53289;45.602;11.904;2022-12-16T06:12:32;6.10;87.50
64817;DHT22;53289;45.602;11.904;2022-12-16T06:15:16;6.00;87.50
64817;DHT22;53289;45.602;11.904;2022-12-16T06:18:11;6.10;87.50
64817;DHT22;53289;45.602;11.904;2022-12-16T06:20:56;6.10;87.50
64817;DHT22;53289;45.602;11.904;2022-12-16T06:23:40;6.20;87.50
64817;DHT22;53289;45.602;11.904;2022-12-16T06:26:23;6.20;87.40
64817;DHT22;53289;45.602;11.904;2022-12-16T06:29:08;6.30;87.20
64817;DHT22;53289;45.602;11.904;2022-12-16T06:31:52;6.40;87.00
64817;DHT22;53289;45.602;11.904;2022-12-16T06:34:37;6.40;86.70
64817;DHT22;53289;45.602;11.904;2022-12-16T06:37:21;6.50;86.50
64817;DHT22;53289;45.602;11.904;2022-12-16T06:40:05;6.50;86.40
64817;DHT22;53289;45.602;11.904;2022-12-16T06:42:49;6.50;86.30
64817;DHT22;53289;45.602;11.904;2022-12-16T06:45:33;6.50;86.30
64817;DHT22;53289;45.602;11.904;2022-12-16T06:48:17;6.60;86.10
64817;DHT22;53289;45.602;11.904;2022-12-16T06:51:01;6.50;86.00
64817;DHT22;53289;45.602;11.904;2022-12-16T06:53:45;6.50;86.10
64817;DHT22;53289;45.602;11.904;2022-12-16T06:56:30;6.50;86.10
64817;DHT22;53289;45.602;11.904;2022-12-16T06:59:14;6.50;86.20
64817;DHT22;53289;45.602;11.904;2022-12-16T07:01:58;6.40;86.40
64817;DHT22;53289;45.602;11.904;2022-12-16T07:04:59;6.50;86.30
64817;DHT22;53289;45.602;11.904;2022-12-16T07:07:50;6.40;86.40
64817;DHT22;53289;45.602;11.904;2022-12-16T07:10:35;6.40;86.50
64817;DHT22;53289;45.602;11.904;2022-12-16T07:13:19;6.40;86.50
64817;DHT22;53289;45.602;11.904;2022-12-16T07:16:03;6.40;86.60
64817;DHT22;53289;45.602;11.904;2022-12-16T07:18:48;6.40;86.60
64817;DHT22;53289;45.602;11.904;2022-12-16T07:21:32;6.30;86.70
64817;DHT22;53289;45.602;11.904;2022-12-16T07:24:16;6.40;86.90
64817;DHT22;53289;45.602;11.904;2022-12-16T07:27:00;6.40;86.90
64817;DHT22;53289;45.602;11.904;2022-12-16T07:29:44;6.50;86.90
64817;DHT22;53289;45.602;11.904;2022-12-16T07:32:28;6.50;86.90
64817;DHT22;53289;45.602;11.904;2022-12-16T07:35:12;6.50;86.90
64817;DHT22;53289;45.602;11.904;2022-12-16T07:37:57;6.50;86.90
64817;DHT22;53289;45.602;11.904;2022-12-16T07:40:41;6.50;86.90
64817;DHT22;53289;45.602;11.904;2022-12-16T07:43:25;6.50;87.00
64817;DHT22;53289;45.602;11.904;2022-12-16T07:46:09;6.50;87.00
64817;DHT22;53289;45.602;11.904;2022-12-16T07:48:53;6.50;86.90
64817;DHT22;53289;45.602;11.904;2022-12-16T07:51:37;6.50;87.00
64817;DHT22;53289;45.602;11.904;2022-12-16T07:54:21;6.60;87.00
64817;DHT22;53289;45.602;11.904;2022-12-16T07:57:05;6.50;86.90
64817;DHT22;53289;45.602;11.904;2022-12-16T07:59:50;6.50;86.90
64817;DHT22;53289;45.602;11.904;2022-12-16T08:02:34;6.40;86.90
64817;DHT22;53289;45.602;11.904;2022-12-16T08:05:18;6.40;87.10
64817;DHT22;53289;45.602;11.904;2022-12-16T08:08:02;6.40;87.10
64817;DHT22;53289;45.602;11.904;2022-12-16T08:10:52;6.40;87.00
64817;DHT22;53289;45.602;11.904;2022-12-16T08:13:37;6.40;87.00
64817;DHT22;53289;45.602;11.904;2022-12-16T08:16:21;6.40;87.00
64817;DHT22;53289;45.602;11.904;2022-12-16T08:19:05;6.30;87.10
64817;DHT22;53289;45.602;11.904;2022-12-16T08:21:49;6.40;87.20
64817;DHT22;53289;45.602;11.904;2022-12-16T08:24:33;6.40;87.20
64817;DHT22;53289;45.602;11.904;2022-12-16T08:27:17;6.40;87.20
64817;DHT22;53289;45.602;11.904;2022-12-16T08:30:03;6.40;87.20
64817;DHT22;53289;45.602;11.904;2022-12-16T08:32:48;6.40;87.20
64817;DHT22;53289;45.602;11.904;2022-12-16T08:35:32;6.40;87.20
64817;DHT22;53289;45.602;11.904;2022-12-16T08:38:16;6.40;87.00
64817;DHT22;53289;45.602;11.904;2022-12-16T08:41:00;6.30;87.00
64817;DHT22;53289;45.602;11.904;2022-12-16T08:43:44;6.30;87.10
64817;DHT22;53289;45.602;11.904;2022-12-16T08:46:28;6.30;87.20
64817;DHT22;53289;45.602;11.904;2022-12-16T08:49:13;6.30;87.20
64817;DHT22;53289;45.602;11.904;2022-12-16T08:51:57;6.30;87.30
64817;DHT22;53289;45.602;11.904;2022-12-16T08:54:41;6.30;87.40
64817;DHT22;53289;45.602;11.904;2022-12-16T08:57:25;6.40;87.50
64817;DHT22;53289;45.602;11.904;2022-12-16T09:00:09;6.40;87.50
64817;DHT22;53289;45.602;11.904;2022-12-16T09:02:55;6.50;87.40
64817;DHT22;53289;45.602;11.904;2022-12-16T09:05:40;6.60;87.30
64817;DHT22;53289;45.602;11.904;2022-12-16T09:08:25;6.50;87.30
64817;DHT22;53289;45.602;11.904;2022-12-16T09:11:09;6.60;87.20
64817;DHT22;53289;45.602;11.904;2022-12-16T09:13:53;6.60;87.20
64817;DHT22;53289;45.602;11.904;2022-12-16T09:16:38;6.70;87.00
64817;DHT22;53289;45.602;11.904;2022-12-16T09:19:22;6.60;86.90
64817;DHT22;53289;45.602;11.904;2022-12-16T09:22:07;6.70;86.90
64817;DHT22;53289;45.602;11.904;2022-12-16T09:24:51;6.60;86.90
64817;DHT22;53289;45.602;11.904;2022-12-16T09:27:35;6.60;86.90
64817;DHT22;53289;45.602;11.904;2022-12-16T09:30:20;6.60;86.90
64817;DHT22;53289;45.602;11.904;2022-12-16T09:33:15;6.60;86.90
64817;DHT22;53289;45.602;11.904;2022-12-16T09:35:59;6.60;86.90
64817;DHT22;53289;45.602;11.904;2022-12-16T09:38:43;6.60;86.80
64817;DHT22;53289;45.602;11.904;2022-12-16T09:50:29;6.70;86.80
64817;DHT22;53289;45.602;11.904;2022-12-16T09:53:17;6.70;86.80
64817;DHT22;53289;45.602;11.904;2022-12-16T09:56:06;6.70;86.70
64817;DHT22;53289;45.602;11.904;2022-12-16T09:58:58;6.70;86.70
64817;DHT22;53289;45.602;11.904;2022-12-16T10:01:44;6.70;86.70
64817;DHT22;53289;45.602;11.904;2022-12-16T10:04:28;6.60;86.70
64817;DHT22;53289;45.602;11.904;2022-12-16T10:07:17;6.60;86.90
64817;DHT22;53289;45.602;11.904;2022-12-16T10:10:16;6.60;87.00
64817;DHT22;53289;45.602;11.904;2022-12-16T10:16:39;6.50;87.20
64817;DHT22;53289;45.602;11.904;2022-12-16T10:28:41;6.70;87.70
64817;DHT22;53289;45.602;11.904;2022-12-16T10:31:27;6.80;87.70
64817;DHT22;53289;45.602;11.904;2022-12-16T10:34:18;6.90;87.60
64817;DHT22;53289;45.602;11.904;2022-12-16T10:37:03;7.00;87.50
64817;DHT22;53289;45.602;11.904;2022-12-16T10:39:55;7.10;87.50
64817;DHT22;53289;45.602;11.904;2022-12-16T10:42:48;7.20;87.20
64817;DHT22;53289;45.602;11.904;2022-12-16T10:45:43;7.30;86.90
64817;DHT22;53289;45.602;11.904;2022-12-16T10:48:30;7.40;86.70
64817;DHT22;53289;45.602;11.904;2022-12-16T10:51:19;7.50;86.50
64817;DHT22;53289;45.602;11.904;2022-12-16T10:54:23;7.60;86.50
64817;DHT22;53289;45.602;11.904;2022-12-16T10:58:12;7.60;86.40
64817;DHT22;53289;45.602;11.904;2022-12-16T11:00:50;7.60;86.30
64817;DHT22;53289;45.602;11.904;2022-12-16T11:03:37;7.60;86.40
64817;DHT22;53289;45.602;11.904;2022-12-16T11:06:34;7.60;86.40
64817;DHT22;53289;45.602;11.904;2022-12-16T11:12:20;7.60;86.50
64817;DHT22;53289;45.602;11.904;2022-12-16T11:15:37;7.70;86.60
64817;DHT22;53289;45.602;11.904;2022-12-16T11:18:22;7.80;86.50
64817;DHT22;53289;45.602;11.904;2022-12-16T11:21:16;7.80;86.40
64817;DHT22;53289;45.602;11.904;2022-12-16T11:24:16;7.80;86.30
64817;DHT22;53289;45.602;11.904;2022-12-16T11:27:09;7.80;86.30
64817;DHT22;53289;45.602;11.904;2022-12-16T11:29:58;7.80;86.30
64817;DHT22;53289;45.602;11.904;2022-12-16T11:32:55;7.80;86.50
64817;DHT22;53289;45.602;11.904;2022-12-16T11:35:51;7.90;86.50
64817;DHT22;53289;45.602;11.904;2022-12-16T11:38:47;7.90;86.50
64817;DHT22;53289;45.602;11.904;2022-12-16T11:41:45;8.00;86.40
64817;DHT22;53289;45.602;11.904;2022-12-16T11:44:33;8.00;86.40
64817;DHT22;53289;45.602;11.904;2022-12-16T11:50:15;7.90;86.40
64817;DHT22;53289;45.602;11.904;2022-12-16T11:53:00;8.00;86.50
64817;DHT22;53289;45.602;11.904;2022-12-16T11:55:49;8.10;86.60
64817;DHT22;53289;45.602;11.904;2022-12-16T11:58:46;8.10;86.60
64817;DHT22;53289;45.602;11.904;2022-12-16T12:01:59;8.20;86.60
64817;DHT22;53289;45.602;11.904;2022-12-16T12:04:48;8.20;86.70
64817;DHT22;53289;45.602;11.904;2022-12-16T12:08:04;8.30;86.50
64817;DHT22;53289;45.602;11.904;2022-12-16T12:10:59;8.30;86.50
64817;DHT22;53289;45.602;11.904;2022-12-16T12:22:47;8.70;86.10
64817;DHT22;53289;45.602;11.904;2022-12-16T12:31:58;8.80;85.60
64817;DHT22;53289;45.602;11.904;2022-12-16T12:35:20;8.90;84.90
64817;DHT22;53289;45.602;11.904;2022-12-16T12:38:30;8.90;84.60
64817;DHT22;53289;45.602;11.904;2022-12-16T12:41:40;8.90;84.50
64817;DHT22;53289;45.602;11.904;2022-12-16T12:44:40;8.90;84.50
64817;DHT22;53289;45.602;11.904;2022-12-16T12:47:29;8.80;84.60
64817;DHT22;53289;45.602;11.904;2022-12-16T12:50:20;8.80;84.80
64817;DHT22;53289;45.602;11.904;2022-12-16T12:53:48;8.80;84.90
64817;DHT22;53289;45.602;11.904;2022-12-16T12:56:46;8.80;84.90
64817;DHT22;53289;45.602;11.904;2022-12-16T13:02:42;8.90;84.80
64817;DHT22;53289;45.602;11.904;2022-12-16T13:05:30;8.90;84.80
64817;DHT22;53289;45.602;11.904;2022-12-16T13:11:17;9.00;84.30
64817;DHT22;53289;45.602;11.904;2022-12-16T13:14:01;9.00;84.50
64817;DHT22;53289;45.602;11.904;2022-12-16T13:17:13;9.00;84.50
64817;DHT22;53289;45.602;11.904;2022-12-16T13:19:57;9.10;84.50
64817;DHT22;53289;45.602;11.904;2022-12-16T13:22:43;9.10;84.50
64817;DHT22;53289;45.602;11.904;2022-12-16T13:25:53;9.10;84.50
64817;DHT22;53289;45.602;11.904;2022-12-16T13:28:40;9.00;84.30
64817;DHT22;53289;45.602;11.904;2022-12-16T13:31:27;8.90;84.40
64817;DHT22;53289;45.602;11.904;2022-12-16T13:37:04;8.90;84.60
64817;DHT22;53289;45.602;11.904;2022-12-16T13:40:16;8.80;84.80
64817;DHT22;53289;45.602;11.904;2022-12-16T13:43:01;8.80;85.00
64817;DHT22;53289;45.602;11.904;2022-12-16T13:46:13;8.80;85.10
64817;DHT22;53289;45.602;11.904;2022-12-16T13:52:51;8.90;84.30
64817;DHT22;53289;45.602;11.904;2022-12-16T13:55:47;8.90;84.10
64817;DHT22;53289;45.602;11.904;2022-12-16T13:58:43;8.90;84.10
64817;DHT22;53289;45.602;11.904;2022-12-16T14:04:32;8.80;84.30
64817;DHT22;53289;45.602;11.904;2022-12-16T14:07:20;8.80;84.20
64817;DHT22;53289;45.602;11.904;2022-12-16T14:10:05;8.70;84.40
64817;DHT22;53289;45.602;11.904;2022-12-16T14:24:54;8.70;85.00
64817;DHT22;53289;45.602;11.904;2022-12-16T14:27:45;8.70;84.90
64817;DHT22;53289;45.602;11.904;2022-12-16T14:30:31;8.70;84.80
64817;DHT22;53289;45.602;11.904;2022-12-16T14:36:00;8.60;84.80
64817;DHT22;53289;45.602;11.904;2022-12-16T14:38:48;8.60;84.80
64817;DHT22;53289;45.602;11.904;2022-12-16T14:41:33;8.50;84.70
64817;DHT22;53289;45.602;11.904;2022-12-16T14:44:22;8.40;84.80
64817;DHT22;53289;45.602;11.904;2022-12-16T14:47:18;8.30;84.90
64817;DHT22;53289;45.602;11.904;2022-12-16T14:50:20;8.20;85.10
64817;DHT22;53289;45.602;11.904;2022-12-16T14:53:29;8.10;85.20
64817;DHT22;53289;45.602;11.904;2022-12-16T14:59:14;8.00;85.70
64817;DHT22;53289;45.602;11.904;2022-12-16T15:02:11;8.00;85.80
64817;DHT22;53289;45.602;11.904;2022-12-16T15:04:57;8.00;85.80
64817;DHT22;53289;45.602;11.904;2022-12-16T15:07:41;8.10;85.80
64817;DHT22;53289;45.602;11.904;2022-12-16T15:10:26;8.00;85.80
64817;DHT22;53289;45.602;11.904;2022-12-16T15:13:17;8.10;85.80
64817;DHT22;53289;45.602;11.904;2022-12-16T15:16:02;8.10;85.80
64817;DHT22;53289;45.602;11.904;2022-12-16T15:18:56;8.10;85.80
64817;DHT22;53289;45.602;11.904;2022-12-16T15:21:42;8.10;85.80
64817;DHT22;53289;45.602;11.904;2022-12-16T15:24:36;8.10;85.80
64817;DHT22;53289;45.602;11.904;2022-12-16T15:27:26;8.10;85.60
64817;DHT22;53289;45.602;11.904;2022-12-16T15:33:36;8.00;85.50
64817;DHT22;53289;45.602;11.904;2022-12-16T15:36:27;7.90;85.50
64817;DHT22;53289;45.602;11.904;2022-12-16T15:39:36;7.90;85.50
64817;DHT22;53289;45.602;11.904;2022-12-16T15:42:31;7.90;85.50
64817;DHT22;53289;45.602;11.904;2022-12-16T15:45:26;7.80;85.50
64817;DHT22;53289;45.602;11.904;2022-12-16T15:51:28;7.70;85.80
64817;DHT22;53289;45.602;11.904;2022-12-16T15:54:22;7.70;85.90
64817;DHT22;53289;45.602;11.904;2022-12-16T15:57:55;7.60;85.90
64817;DHT22;53289;45.602;11.904;2022-12-16T16:00:39;7.60;85.80
64817;DHT22;53289;45.602;11.904;2022-12-16T16:03:29;7.50;85.90
64817;DHT22;53289;45.602;11.904;2022-12-16T16:09:14;7.50;86.10
64817;DHT22;53289;45.602;11.904;2022-12-16T16:11:59;7.40;86.10
64817;DHT22;53289;45.602;11.904;2022-12-16T16:14:43;7.40;86.20
64817;DHT22;53289;45.602;11.904;2022-12-16T16:17:28;7.30;86.30
64817;DHT22;53289;45.602;11.904;2022-12-16T16:20:14;7.30;86.40
64817;DHT22;53289;45.602;11.904;2022-12-16T16:22:59;7.30;86.50
64817;DHT22;53289;45.602;11.904;2022-12-16T16:25:45;7.30;86.60
64817;DHT22;53289;45.602;11.904;2022-12-16T16:28:30;7.30;86.70
64817;DHT22;53289;45.602;11.904;2022-12-16T16:31:15;7.30;86.80
64817;DHT22;53289;45.602;11.904;2022-12-16T16:33:59;7.30;86.80
64817;DHT22;53289;45.602;11.904;2022-12-16T16:36:46;7.40;86.80
64817;DHT22;53289;45.602;11.904;2022-12-16T16:39:35;7.40;86.80
64817;DHT22;53289;45.602;11.904;2022-12-16T16:42:20;7.40;86.70
64817;DHT22;53289;45.602;11.904;2022-12-16T16:45:08;7.40;86.60
64817;DHT22;53289;45.602;11.904;2022-12-16T16:48:08;7.30;86.50
64817;DHT22;53289;45.602;11.904;2022-12-16T16:50:57;7.30;86.60
64817;DHT22;53289;45.602;11.904;2022-12-16T16:53:42;7.30;86.60
64817;DHT22;53289;45.602;11.904;2022-12-16T16:56:29;7.20;86.60
64817;DHT22;53289;45.602;11.904;2022-12-16T16:59:14;7.20;86.70
64817;DHT22;53289;45.602;11.904;2022-12-16T17:01:58;7.20;86.70
64817;DHT22;53289;45.602;11.904;2022-12-16T17:04:42;7.20;86.70
64817;DHT22;53289;45.602;11.904;2022-12-16T17:07:27;7.20;86.70
64817;DHT22;53289;45.602;11.904;2022-12-16T17:10:11;7.20;86.80
64817;DHT22;53289;45.602;11.904;2022-12-16T17:12:56;7.30;86.70
64817;DHT22;53289;45.602;11.904;2022-12-16T17:15:40;7.30;86.70
64817;DHT22;53289;45.602;11.904;2022-12-16T17:18:24;7.30;86.70
64817;DHT22;53289;45.602;11.904;2022-12-16T17:21:08;7.30;86.60
64817;DHT22;53289;45.602;11.904;2022-12-16T17:23:53;7.20;86.70
64817;DHT22;53289;45.602;11.904;2022-12-16T17:26:42;7.20;86.70
64817;DHT22;53289;45.602;11.904;2022-12-16T17:29:27;7.30;86.60
64817;DHT22;53289;45.602;11.904;2022-12-16T17:32:11;7.30;86.50
64817;DHT22;53289;45.602;11.904;2022-12-16T17:34:56;7.40;86.40
64817;DHT22;53289;45.602;11.904;2022-12-16T17:37:41;7.40;86.30
64817;DHT22;53289;45.602;11.904;2022-12-16T17:40:25;7.40;86.40
64817;DHT22;53289;45.602;11.904;2022-12-16T17:43:10;7.40;86.30
64817;DHT22;53289;45.602;11.904;2022-12-16T17:45:59;7.40;86.20
64817;DHT22;53289;45.602;11.904;2022-12-16T17:48:44;7.40;86.20
64817;DHT22;53289;45.602;11.904;2022-12-16T17:51:33;7.30;86.10
64817;DHT22;53289;45.602;11.904;2022-12-16T17:54:17;7.30;86.20
64817;DHT22;53289;45.602;11.904;2022-12-16T17:57:01;7.30;86.30
64817;DHT22;53289;45.602;11.904;2022-12-16T17:59:46;7.30;86.30
64817;DHT22;53289;45.602;11.904;2022-12-16T18:02:30;7.30;86.20
64817;DHT22;53289;45.602;11.904;2022-12-16T18:05:14;7.30;86.20
64817;DHT22;53289;45.602;11.904;2022-12-16T18:07:58;7.30;86.20
64817;DHT22;53289;45.602;11.904;2022-12-16T18:10:42;7.40;86.30
64817;DHT22;53289;45.602;11.904;2022-12-16T18:13:26;7.30;86.20
64817;DHT22;53289;45.602;11.904;2022-12-16T18:16:10;7.30;86.00
64817;DHT22;53289;45.602;11.904;2022-12-16T18:18:55;7.20;86.00
64817;DHT22;53289;45.602;11.904;2022-12-16T18:21:39;7.10;86.00
64817;DHT22;53289;45.602;11.904;2022-12-16T18:24:23;7.10;86.00
64817;DHT22;53289;45.602;11.904;2022-12-16T18:27:07;7.00;86.10
64817;DHT22;53289;45.602;11.904;2022-12-16T18:29:52;7.00;86.30
64817;DHT22;53289;45.602;11.904;2022-12-16T18:32:36;7.00;86.40
64817;DHT22;53289;45.602;11.904;2022-12-16T18:35:19;7.00;86.30
64817;DHT22;53289;45.602;11.904;2022-12-16T18:38:04;6.90;86.40
64817;DHT22;53289;45.602;11.904;2022-12-16T18:40:48;6.90;86.40
64817;DHT22;53289;45.602;11.904;2022-12-16T18:43:32;6.90;86.50
64817;DHT22;53289;45.602;11.904;2022-12-16T18:46:16;6.90;86.60
64817;DHT22;53289;45.602;11.904;2022-12-16T18:49:00;7.00;86.60
64817;DHT22;53289;45.602;11.904;2022-12-16T18:51:52;7.00;86.60
64817;DHT22;53289;45.602;11.904;2022-12-16T18:54:36;7.10;86.60
64817;DHT22;53289;45.602;11.904;2022-12-16T18:57:20;7.10;86.60
64817;DHT22;53289;45.602;11.904;2022-12-16T19:00:05;7.10;86.60
64817;DHT22;53289;45.602;11.904;2022-12-16T19:02:50;7.10;86.60
64817;DHT22;53289;45.602;11.904;2022-12-16T19:05:34;7.10;86.70
64817;DHT22;53289;45.602;11.904;2022-12-16T19:08:18;7.20;86.50
64817;DHT22;53289;45.602;11.904;2022-12-16T19:11:02;7.20;86.40
64817;DHT22;53289;45.602;11.904;2022-12-16T19:13:48;7.30;86.40